Time;durP1;ratioP1;P1;durP2;ratioP2;P2;SDS_P1;SDS_P2;PMS_P1;PMS_P2;Temp;Humidity;BMP_temperature;BMP_pressure;BME280_temperature;BME280_humidity;BME280_pressure;Samples;Min_cycle;Max_cycle;Signal;HPM_P1;HPM_P2
2022/11/27 00:01:59;;;;;;;18.73;6.78;;;6.00;99.90;;;;;;5041209;28;20227;-64
2022/11/27 00:04:25;;;;;;;17.35;5.95;;;6.00;99.90;;;;;;5044381;28;20072;-64
2022/11/27 00:06:50;;;;;;;20.90;7.05;;;6.00;99.90;;;;;;5040019;28;20046;-63
2022/11/27 00:09:16;;;;;;;21.30;6.53;;;6.00;99.90;;;;;;5040151;28;20037;-64
2022/11/27 00:11:43;;;;;;;20.42;6.57;;;6.00;99.90;;;;;;5043555;28;20340;-65
2022/11/27 00:14:14;;;;;;;16.08;6.68;;;6.00;99.90;;;;;;5033165;28;20649;-64
2022/11/27 00:16:39;;;;;;;20.88;6.45;;;6.00;99.90;;;;;;5036793;28;20056;-64
2022/11/27 00:19:05;;;;;;;23.33;7.63;;;5.90;99.90;;;;;;5037118;28;20043;-65
2022/11/27 00:21:34;;;;;;;18.08;7.05;;;5.90;99.90;;;;;;5044263;28;20041;-63
2022/11/27 00:24:02;;;;;;;21.90;6.85;;;5.90;99.90;;;;;;5034709;28;20048;-63
2022/11/27 00:26:29;;;;;;;17.02;6.10;;;5.90;99.90;;;;;;5037362;28;20128;-64
2022/11/27 00:28:54;;;;;;;18.85;6.22;;;5.80;99.90;;;;;;5039229;28;20049;-64
2022/11/27 00:31:27;;;;;;;17.35;5.90;;;5.80;99.90;;;;;;5038578;28;20045;-64
2022/11/27 00:33:58;;;;;;;21.05;7.05;;;5.80;99.90;;;;;;5040671;28;20143;-64
2022/11/27 00:36:25;;;;;;;13.98;5.43;;;5.80;99.90;;;;;;5046693;28;20098;-63
2022/11/27 00:38:51;;;;;;;13.25;6.47;;;5.80;99.90;;;;;;5043599;28;20037;-64
2022/11/27 00:41:23;;;;;;;21.33;6.53;;;5.70;99.90;;;;;;5040577;28;20073;-64
2022/11/27 00:43:50;;;;;;;17.88;6.80;;;5.70;99.90;;;;;;5040713;28;20101;-64
2022/11/27 00:46:17;;;;;;;17.83;6.40;;;5.70;99.90;;;;;;5044576;28;20084;-65
2022/11/27 00:48:44;;;;;;;19.15;6.80;;;5.70;99.90;;;;;;5042414;28;20032;-65
2022/11/27 00:51:13;;;;;;;19.60;7.00;;;5.70;99.90;;;;;;5045814;28;20552;-64
2022/11/27 00:53:39;;;;;;;25.33;6.70;;;5.60;99.90;;;;;;5043183;28;20417;-64
2022/11/27 00:56:06;;;;;;;16.08;6.45;;;5.60;99.90;;;;;;5040269;28;20104;-64
2022/11/27 00:58:31;;;;;;;17.77;6.38;;;5.60;99.90;;;;;;5049270;28;20409;-63
2022/11/27 01:01:03;;;;;;;24.30;7.10;;;5.50;99.90;;;;;;5041104;28;20033;-65
2022/11/27 01:03:30;;;;;;;14.68;6.68;;;5.50;99.90;;;;;;5045160;28;20037;-64
2022/11/27 01:05:56;;;;;;;19.02;6.85;;;5.50;99.90;;;;;;5044755;28;20110;-64
2022/11/27 01:08:22;;;;;;;17.50;7.10;;;5.50;99.90;;;;;;5042363;28;20519;-64
2022/11/27 01:10:53;;;;;;;18.08;7.82;;;5.50;99.90;;;;;;5037841;28;20041;-65
2022/11/27 01:13:21;;;;;;;16.77;7.07;;;5.50;99.90;;;;;;5039464;28;20075;-64
2022/11/27 01:16:00;;;;;;;17.48;7.38;;;5.50;99.90;;;;;;5044239;28;20075;-64
2022/11/27 01:18:27;;;;;;;21.00;7.40;;;5.50;99.90;;;;;;5041348;28;20038;-64
2022/11/27 01:20:53;;;;;;;23.65;7.28;;;5.40;99.90;;;;;;5041726;28;20037;-64
2022/11/27 01:23:20;;;;;;;16.10;6.80;;;5.30;99.90;;;;;;5042554;28;20041;-64
2022/11/27 01:25:47;;;;;;;23.40;7.05;;;5.30;99.90;;;;;;5044317;28;20052;-64
2022/11/27 01:28:13;;;;;;;17.33;7.28;;;5.40;99.90;;;;;;5046246;28;20041;-65
2022/11/27 01:30:39;;;;;;;20.73;7.03;;;5.30;99.90;;;;;;5046691;28;20136;-64
2022/11/27 01:33:04;;;;;;;12.60;6.10;;;5.30;99.90;;;;;;5046382;28;20037;-63
2022/11/27 01:35:30;;;;;;;23.65;7.10;;;5.30;99.90;;;;;;5045702;28;20040;-64
2022/11/27 01:37:56;;;;;;;15.30;7.20;;;5.20;99.90;;;;;;5047933;28;20122;-65
2022/11/27 01:40:22;;;;;;;19.55;6.75;;;5.20;99.90;;;;;;5043963;28;20032;-64
2022/11/27 01:42:47;;;;;;;17.30;7.13;;;5.10;99.90;;;;;;5041045;28;20055;-64
2022/11/27 01:45:19;;;;;;;18.20;7.50;;;5.10;99.90;;;;;;5042129;28;20059;-64
2022/11/27 01:47:50;;;;;;;19.35;7.15;;;5.10;99.90;;;;;;5043479;28;20049;-63
2022/11/27 01:50:24;;;;;;;16.70;6.75;;;5.10;99.90;;;;;;5036740;28;20041;-64
2022/11/27 01:52:53;;;;;;;;;;;5.10;99.90;;;;;;5040423;28;20119;-64
2022/11/27 01:55:27;;;;;;;17.23;6.53;;;5.00;99.90;;;;;;5046723;28;20269;-63
2022/11/27 01:57:58;;;;;;;19.55;6.75;;;5.00;99.90;;;;;;5040525;28;20055;-64
2022/11/27 02:00:25;;;;;;;21.77;6.18;;;4.90;99.90;;;;;;5045028;28;20040;-64
2022/11/27 02:02:51;;;;;;;17.58;6.63;;;5.00;99.90;;;;;;5038285;28;20393;-64
2022/11/27 02:05:24;;;;;;;18.90;7.47;;;4.90;99.90;;;;;;5042444;28;20132;-64
2022/11/27 02:07:52;;;;;;;23.70;7.65;;;5.00;99.90;;;;;;5042381;28;20478;-64
2022/11/27 02:10:18;;;;;;;15.02;7.28;;;4.90;99.90;;;;;;5043415;28;20041;-64
2022/11/27 02:13:12;;;;;;;17.17;7.40;;;4.90;99.90;;;;;;5037757;28;20213;-64
2022/11/27 02:15:47;;;;;;;21.92;7.32;;;4.90;99.90;;;;;;5037141;28;20056;-64
2022/11/27 02:18:24;;;;;;;18.48;7.30;;;4.90;99.90;;;;;;5040754;28;20038;-64
2022/11/27 02:21:09;;;;;;;21.77;8.25;;;4.80;99.90;;;;;;5042800;28;20072;-63
2022/11/27 02:23:53;;;;;;;21.05;7.45;;;4.90;99.90;;;;;;5041669;28;20120;-64
2022/11/27 02:26:39;;;;;;;16.95;7.30;;;4.90;99.90;;;;;;5038166;28;20461;-63
2022/11/27 02:29:13;;;;;;;18.85;7.10;;;4.90;99.90;;;;;;5041879;28;20101;-64
2022/11/27 02:31:48;;;;;;;21.15;7.65;;;4.90;99.90;;;;;;5038102;28;20187;-64
2022/11/27 02:34:30;;;;;;;14.70;6.80;;;5.00;99.90;;;;;;5043682;28;20485;-64
2022/11/27 02:37:38;;;;;;;16.15;7.13;;;4.90;99.90;;;;;;5038426;28;20106;-64
2022/11/27 02:40:15;;;;;;;16.70;7.18;;;4.90;99.90;;;;;;4986654;28;20077;-64
2022/11/27 02:43:15;;;;;;;19.60;6.75;;;4.90;99.90;;;;;;4985551;28;20042;-64
2022/11/27 02:45:44;;;;;;;17.13;7.03;;;4.90;99.90;;;;;;5028088;28;20084;-63
2022/11/27 02:48:13;;;;;;;19.52;7.20;;;4.90;99.90;;;;;;5039806;28;20152;-64
2022/11/27 02:50:42;;;;;;;15.25;6.43;;;5.00;99.90;;;;;;5039938;28;20464;-64
2022/11/27 02:53:13;;;;;;;21.50;8.40;;;5.00;99.90;;;;;;5044331;28;20119;-63
2022/11/27 02:55:41;;;;;;;20.02;7.50;;;5.00;99.90;;;;;;5043160;28;20036;-64
2022/11/27 02:58:11;;;;;;;15.93;6.82;;;5.00;99.90;;;;;;5040252;28;20174;-64
2022/11/27 03:00:38;;;;;;;17.30;6.38;;;5.00;99.90;;;;;;5039861;28;20072;-64
2022/11/27 03:03:07;;;;;;;15.48;6.53;;;5.10;99.90;;;;;;5034157;28;20043;-65
2022/11/27 03:05:38;;;;;;;16.20;6.75;;;5.10;99.90;;;;;;5039854;28;20044;-64
2022/11/27 03:08:29;;;;;;;13.55;6.75;;;5.10;99.90;;;;;;5039035;28;20049;-64
2022/11/27 03:11:03;;;;;;;19.25;6.60;;;5.10;99.90;;;;;;5041077;28;20041;-64
2022/11/27 03:13:34;;;;;;;17.05;6.07;;;5.10;99.90;;;;;;5040559;28;20056;-63
2022/11/27 03:16:13;;;;;;;19.00;6.35;;;5.20;99.90;;;;;;5036367;28;20055;-63
2022/11/27 03:18:50;;;;;;;17.83;6.55;;;5.20;99.90;;;;;;5039913;28;20041;-64
2022/11/27 03:21:30;;;;;;;16.90;6.95;;;5.20;99.90;;;;;;5042938;28;20033;-64
2022/11/27 03:23:57;;;;;;;15.45;5.88;;;5.20;99.90;;;;;;5043355;28;22001;-63
2022/11/27 03:26:22;;;;;;;17.05;6.22;;;5.20;99.90;;;;;;5037988;28;20485;-63
2022/11/27 03:28:50;;;;;;;13.93;5.53;;;5.20;99.90;;;;;;5041842;28;20087;-64
2022/11/27 03:31:16;;;;;;;15.68;5.72;;;5.20;99.90;;;;;;5040513;28;20064;-63
2022/11/27 03:33:42;;;;;;;15.63;5.65;;;5.30;99.90;;;;;;5039205;28;20045;-64
2022/11/27 03:36:16;;;;;;;17.98;6.45;;;5.20;99.90;;;;;;5038729;28;20090;-64
2022/11/27 03:38:43;;;;;;;15.50;6.07;;;5.20;99.90;;;;;;5042314;28;20052;-64
2022/11/27 03:41:12;;;;;;;15.18;5.82;;;5.20;99.90;;;;;;5041148;28;20037;-64
2022/11/27 03:43:51;;;;;;;14.35;5.50;;;5.20;99.90;;;;;;5039872;28;20087;-64
2022/11/27 03:46:27;;;;;;;16.10;6.07;;;5.20;99.90;;;;;;5037126;28;20103;-64
2022/11/27 03:49:17;;;;;;;14.20;5.30;;;5.30;99.90;;;;;;5043352;28;20538;-63
2022/11/27 03:52:03;;;;;;;17.73;6.18;;;5.30;99.90;;;;;;5039134;28;20041;-63
2022/11/27 03:54:46;;;;;;;16.42;5.32;;;5.30;99.90;;;;;;5036614;28;20044;-64
2022/11/27 03:57:19;;;;;;;13.57;5.28;;;5.30;99.90;;;;;;5034912;28;20117;-63
2022/11/27 03:59:49;;;;;;;13.20;5.10;;;5.30;99.90;;;;;;5044681;28;20036;-63
2022/11/27 04:02:24;;;;;;;16.65;5.05;;;5.30;99.90;;;;;;5035382;28;20549;-64
2022/11/27 04:04:49;;;;;;;14.27;5.32;;;5.30;99.90;;;;;;5041558;28;20033;-64
2022/11/27 04:07:16;;;;;;;18.17;6.18;;;5.30;99.90;;;;;;5043228;28;20495;-64
2022/11/27 04:09:42;;;;;;;16.33;5.85;;;5.30;99.90;;;;;;5045764;28;20482;-64
2022/11/27 04:12:07;;;;;;;14.07;5.10;;;5.40;99.90;;;;;;5039512;28;20072;-64
2022/11/27 04:14:33;;;;;;;15.93;5.90;;;5.30;99.90;;;;;;5043909;28;20041;-65
2022/11/27 04:16:59;;;;;;;13.45;4.90;;;5.30;99.90;;;;;;5045230;28;20036;-64
2022/11/27 04:19:24;;;;;;;12.88;5.20;;;5.40;99.90;;;;;;5046241;28;20055;-64
2022/11/27 04:21:50;;;;;;;13.32;5.35;;;5.40;99.90;;;;;;5044714;28;20551;-65
2022/11/27 04:24:16;;;;;;;13.07;4.38;;;5.40;99.90;;;;;;5045348;28;20037;-64
2022/11/27 04:26:41;;;;;;;14.70;4.97;;;5.40;99.90;;;;;;5044949;28;20076;-64
2022/11/27 04:29:07;;;;;;;16.42;5.13;;;5.50;99.90;;;;;;5046434;28;20029;-64
2022/11/27 04:31:33;;;;;;;12.07;4.43;;;5.40;99.90;;;;;;5040594;28;20049;-64
2022/11/27 04:33:58;;;;;;;10.00;4.63;;;5.40;99.90;;;;;;5043668;28;20037;-64
2022/11/27 04:36:24;;;;;;;14.32;4.90;;;5.40;99.90;;;;;;5044747;28;20049;-64
2022/11/27 04:38:49;;;;;;;13.32;4.35;;;5.40;99.90;;;;;;5045185;28;20068;-64
2022/11/27 04:41:15;;;;;;;11.05;4.40;;;5.40;99.90;;;;;;5042335;28;20102;-64
2022/11/27 04:43:41;;;;;;;18.17;5.00;;;5.40;99.90;;;;;;5041746;28;20127;-64
2022/11/27 04:46:06;;;;;;;12.48;4.07;;;5.40;99.90;;;;;;5044792;28;20045;-64
2022/11/27 04:48:32;;;;;;;13.18;4.70;;;5.40;99.90;;;;;;5043644;28;20037;-65
2022/11/27 04:50:58;;;;;;;11.30;4.03;;;5.40;99.90;;;;;;5037337;28;20037;-64
2022/11/27 04:53:23;;;;;;;12.80;4.85;;;5.40;99.90;;;;;;5040189;28;20048;-63
2022/11/27 04:55:51;;;;;;;11.35;4.60;;;5.40;99.90;;;;;;5045266;28;20037;-64
2022/11/27 04:58:16;;;;;;;13.95;4.30;;;5.40;99.90;;;;;;5041361;28;20044;-63
2022/11/27 05:00:42;;;;;;;14.65;5.00;;;5.40;99.90;;;;;;5040376;28;21047;-64
2022/11/27 05:03:08;;;;;;;12.98;4.18;;;5.40;99.90;;;;;;5041679;28;20037;-65
2022/11/27 05:05:34;;;;;;;11.20;4.15;;;5.50;99.90;;;;;;5039871;28;20038;-64
2022/11/27 05:07:59;;;;;;;13.90;5.18;;;5.40;99.90;;;;;;5036659;28;20056;-64
2022/11/27 05:10:25;;;;;;;11.85;4.72;;;5.40;99.90;;;;;;5040191;28;20032;-65
2022/11/27 05:12:50;;;;;;;14.13;4.03;;;5.40;99.90;;;;;;5041046;28;20048;-65
2022/11/27 05:15:16;;;;;;;12.90;4.38;;;5.40;99.90;;;;;;5041696;28;20143;-65
2022/11/27 05:17:42;;;;;;;12.20;4.18;;;5.50;99.90;;;;;;5039696;28;20117;-64
2022/11/27 05:20:08;;;;;;;13.50;4.30;;;5.40;99.90;;;;;;5040047;28;20025;-65
2022/11/27 05:22:33;;;;;;;11.27;3.92;;;5.40;99.90;;;;;;5041841;28;20036;-63
2022/11/27 05:24:59;;;;;;;12.63;4.20;;;5.40;99.90;;;;;;5036714;28;20091;-64
2022/11/27 05:27:25;;;;;;;10.43;3.92;;;5.40;99.90;;;;;;5043450;28;20045;-64
2022/11/27 05:29:50;;;;;;;12.00;4.00;;;5.40;99.90;;;;;;5035312;28;20037;-64
2022/11/27 05:32:16;;;;;;;12.82;4.13;;;5.40;99.90;;;;;;5037866;28;20128;-64
2022/11/27 05:34:42;;;;;;;10.00;3.67;;;5.40;99.90;;;;;;5037251;28;20048;-64
2022/11/27 05:37:07;;;;;;;10.68;3.90;;;5.50;99.90;;;;;;5041636;28;20091;-64
2022/11/27 05:39:33;;;;;;;11.10;3.67;;;5.40;99.90;;;;;;5043656;28;20222;-65
2022/11/27 05:41:59;;;;;;;15.25;3.72;;;5.40;99.90;;;;;;5043011;28;20052;-63
2022/11/27 05:44:26;;;;;;;10.75;4.20;;;5.40;99.90;;;;;;5041891;28;20064;-63
2022/11/27 05:46:51;;;;;;;15.00;3.92;;;5.40;99.90;;;;;;5039156;28;20045;-64
2022/11/27 05:49:17;;;;;;;12.27;3.95;;;5.30;99.90;;;;;;5040264;28;20045;-64
2022/11/27 05:51:43;;;;;;;11.02;3.80;;;5.40;99.90;;;;;;5043997;28;20436;-64
2022/11/27 05:54:09;;;;;;;10.90;4.22;;;5.40;99.90;;;;;;5036903;28;20080;-63
2022/11/27 05:56:35;;;;;;;14.25;3.80;;;5.30;99.90;;;;;;5037673;28;20107;-64
2022/11/27 05:59:00;;;;;;;14.07;4.13;;;5.40;99.90;;;;;;5037198;28;20037;-63
2022/11/27 06:01:27;;;;;;;8.75;3.97;;;5.40;99.90;;;;;;5036879;28;20427;-63
2022/11/27 06:03:52;;;;;;;9.65;3.65;;;5.40;99.90;;;;;;5041280;28;20094;-64
2022/11/27 06:06:19;;;;;;;10.75;3.92;;;5.30;99.90;;;;;;5042541;28;20046;-65
2022/11/27 06:08:46;;;;;;;18.48;5.75;;;5.30;99.90;;;;;;5036738;28;20037;-65
2022/11/27 06:11:17;;;;;;;9.57;4.05;;;5.30;99.90;;;;;;5036467;28;20110;-64
2022/11/27 06:13:44;;;;;;;11.38;3.92;;;5.40;99.90;;;;;;5038292;28;20033;-65
2022/11/27 06:16:21;;;;;;;11.45;3.72;;;5.30;99.90;;;;;;5039658;28;20033;-65
2022/11/27 06:18:54;;;;;;;13.82;4.53;;;5.30;99.90;;;;;;5038359;28;20037;-65
2022/11/27 06:21:22;;;;;;;12.55;4.85;;;5.30;99.90;;;;;;5033952;28;20037;-64
2022/11/27 06:23:51;;;;;;;10.38;4.55;;;5.40;99.90;;;;;;5037434;28;20374;-65
2022/11/27 06:26:20;;;;;;;11.73;3.85;;;5.30;99.90;;;;;;5041362;28;20099;-64
2022/11/27 06:28:48;;;;;;;12.25;4.10;;;5.40;99.90;;;;;;5040898;28;20032;-64
2022/11/27 06:31:21;;;;;;;14.25;4.45;;;5.40;99.90;;;;;;5034402;28;20425;-64
2022/11/27 06:33:48;;;;;;;10.35;3.85;;;5.40;99.90;;;;;;5037959;28;20479;-64
2022/11/27 06:36:15;;;;;;;13.18;4.20;;;5.40;99.90;;;;;;5036237;28;20048;-64
2022/11/27 06:38:41;;;;;;;10.07;3.92;;;5.40;99.90;;;;;;5039274;28;20037;-64
2022/11/27 06:41:15;;;;;;;6.82;4.43;;;5.40;99.90;;;;;;5034546;28;20037;-65
2022/11/27 06:43:41;;;;;;;;;;;5.40;99.90;;;;;;5039756;28;20120;-64
2022/11/27 06:46:12;;;;;;;10.15;4.47;;;5.40;99.90;;;;;;5039177;28;20466;-64
2022/11/27 06:48:38;;;;;;;13.43;4.10;;;5.40;99.90;;;;;;5038354;28;20036;-63
2022/11/27 06:51:06;;;;;;;13.43;4.57;;;5.50;99.90;;;;;;5036457;28;20044;-64
2022/11/27 06:53:35;;;;;;;11.80;4.28;;;5.50;99.90;;;;;;5034472;28;20041;-64
2022/11/27 06:56:05;;;;;;;12.38;4.88;;;5.50;99.90;;;;;;5038928;28;20474;-64
2022/11/27 06:58:31;;;;;;;14.90;5.22;;;5.50;99.90;;;;;;5040601;28;20437;-65
2022/11/27 07:01:03;;;;;;;11.63;4.85;;;5.50;99.90;;;;;;5042324;28;20090;-64
2022/11/27 07:03:29;;;;;;;10.68;4.75;;;5.50;99.90;;;;;;5039054;28;20033;-64
2022/11/27 07:05:58;;;;;;;13.18;4.60;;;5.50;99.90;;;;;;5040565;28;20060;-64
2022/11/27 07:08:23;;;;;;;9.65;5.05;;;5.40;99.90;;;;;;5038763;28;20189;-64
2022/11/27 07:10:49;;;;;;;12.93;4.63;;;5.50;99.90;;;;;;5038323;28;20048;-64
2022/11/27 07:13:15;;;;;;;12.27;4.55;;;5.50;99.90;;;;;;5041165;28;20371;-64
2022/11/27 07:15:41;;;;;;;14.70;5.22;;;5.50;99.90;;;;;;5041918;28;20041;-65
2022/11/27 07:18:06;;;;;;;13.10;5.15;;;5.50;99.90;;;;;;5039097;28;20041;-64
2022/11/27 07:20:32;;;;;;;10.43;4.93;;;5.50;99.90;;;;;;5037937;28;20040;-64
2022/11/27 07:22:58;;;;;;;12.02;5.30;;;5.50;99.90;;;;;;5041804;28;20079;-64
2022/11/27 07:25:23;;;;;;;11.70;5.32;;;5.50;99.90;;;;;;5041555;28;20041;-65
2022/11/27 07:27:49;;;;;;;8.98;4.75;;;5.50;99.90;;;;;;5039700;28;20124;-64
2022/11/27 07:30:15;;;;;;;12.98;5.22;;;5.50;99.90;;;;;;5037140;28;20078;-64
2022/11/27 07:32:41;;;;;;;11.70;5.35;;;5.50;99.90;;;;;;5037843;28;20126;-64
2022/11/27 07:35:07;;;;;;;9.57;5.47;;;5.50;99.90;;;;;;5039716;28;20076;-64
2022/11/27 07:37:33;;;;;;;15.93;5.68;;;5.60;99.90;;;;;;5039156;28;20045;-64
2022/11/27 07:39:58;;;;;;;10.70;4.72;;;5.60;99.90;;;;;;5038744;28;20588;-64
2022/11/27 07:42:24;;;;;;;14.93;5.85;;;5.60;99.90;;;;;;5037142;28;20132;-64
2022/11/27 07:44:50;;;;;;;12.82;5.60;;;5.50;99.90;;;;;;5041778;28;20400;-64
2022/11/27 07:47:15;;;;;;;14.85;6.05;;;5.50;99.90;;;;;;5042602;28;20037;-64
2022/11/27 07:49:41;;;;;;;13.13;5.43;;;5.50;99.90;;;;;;5046013;28;20099;-64
2022/11/27 07:52:07;;;;;;;11.07;5.55;;;5.60;99.90;;;;;;5039504;28;20392;-64
2022/11/27 07:54:33;;;;;;;12.75;6.50;;;5.50;99.90;;;;;;5044371;28;20044;-64
2022/11/27 07:56:59;;;;;;;11.73;6.00;;;5.60;99.90;;;;;;5043207;28;20217;-64
2022/11/27 07:59:25;;;;;;;13.70;5.78;;;5.60;99.90;;;;;;5035813;28;20084;-65
2022/11/27 08:01:51;;;;;;;11.02;5.82;;;5.60;99.90;;;;;;5038392;28;20131;-64
2022/11/27 08:04:16;;;;;;;12.02;5.97;;;5.60;99.90;;;;;;5039550;28;20147;-63
2022/11/27 08:06:42;;;;;;;13.98;6.28;;;5.60;99.90;;;;;;5038953;28;20052;-64
2022/11/27 08:09:08;;;;;;;12.90;6.25;;;5.60;99.90;;;;;;5038702;28;20039;-64
2022/11/27 08:11:34;;;;;;;10.13;5.57;;;5.60;99.90;;;;;;5035789;28;20040;-64
2022/11/27 08:14:05;;;;;;;16.08;6.80;;;5.60;99.90;;;;;;5040050;28;20098;-64
2022/11/27 08:16:33;;;;;;;12.93;6.05;;;5.70;99.90;;;;;;5041886;28;20131;-64
2022/11/27 08:18:59;;;;;;;11.65;5.80;;;5.70;99.90;;;;;;5038333;28;20037;-65
2022/11/27 08:21:26;;;;;;;14.65;6.20;;;5.70;99.90;;;;;;5039421;28;20463;-64
2022/11/27 08:23:52;;;;;;;12.60;6.57;;;5.70;99.90;;;;;;5040524;28;20191;-65
2022/11/27 08:26:18;;;;;;;12.75;6.22;;;5.70;99.90;;;;;;5033213;28;21622;-65
2022/11/27 08:28:44;;;;;;;14.52;6.75;;;5.70;99.90;;;;;;5034048;28;20077;-64
2022/11/27 08:31:11;;;;;;;11.85;6.50;;;5.70;99.90;;;;;;5038099;28;20056;-65
2022/11/27 08:33:37;;;;;;;15.40;6.40;;;5.70;99.90;;;;;;5040840;28;20069;-65
2022/11/27 08:36:04;;;;;;;12.32;5.90;;;5.80;99.90;;;;;;5041525;28;20341;-64
2022/11/27 08:38:30;;;;;;;12.90;6.45;;;5.70;99.90;;;;;;5044155;28;20506;-64
2022/11/27 08:41:00;;;;;;;11.85;6.18;;;5.80;99.90;;;;;;5041110;28;20037;-65
2022/11/27 08:43:27;;;;;;;12.10;6.65;;;5.80;99.90;;;;;;5041921;28;20064;-65
2022/11/27 08:45:53;;;;;;;15.00;6.88;;;5.90;99.90;;;;;;5039311;28;20263;-65
2022/11/27 08:48:20;;;;;;;15.32;6.68;;;5.80;99.90;;;;;;5042733;28;20114;-64
2022/11/27 08:50:46;;;;;;;11.82;7.55;;;5.80;99.90;;;;;;5044168;28;20032;-64
2022/11/27 08:53:12;;;;;;;14.73;6.95;;;5.90;99.90;;;;;;5048044;28;20141;-66
2022/11/27 08:55:38;;;;;;;13.85;8.05;;;5.90;99.90;;;;;;5045227;28;20033;-65
2022/11/27 08:58:04;;;;;;;14.38;7.50;;;5.90;99.90;;;;;;5046989;28;20040;-64
2022/11/27 09:00:31;;;;;;;16.65;7.63;;;5.90;99.90;;;;;;5047513;28;20072;-66
2022/11/27 09:02:58;;;;;;;16.27;7.28;;;5.90;99.90;;;;;;5045722;28;20383;-64
2022/11/27 09:05:24;;;;;;;15.82;7.60;;;6.00;99.90;;;;;;5049280;28;20148;-66
2022/11/27 09:07:50;;;;;;;13.65;7.35;;;6.00;99.90;;;;;;5046341;28;20449;-64
2022/11/27 09:10:16;;;;;;;13.35;7.35;;;6.00;99.90;;;;;;5050165;28;20041;-64
2022/11/27 09:12:43;;;;;;;13.27;7.43;;;6.00;99.90;;;;;;5049772;28;20083;-65
2022/11/27 09:15:12;;;;;;;18.55;8.20;;;6.00;99.90;;;;;;5049308;28;20190;-65
2022/11/27 09:17:38;;;;;;;15.77;7.80;;;6.00;99.90;;;;;;5046947;28;20069;-65
2022/11/27 09:20:05;;;;;;;17.52;8.10;;;6.00;99.90;;;;;;5048263;28;20129;-64
2022/11/27 09:22:32;;;;;;;16.00;7.80;;;6.00;99.90;;;;;;5047626;28;20140;-64
2022/11/27 09:24:58;;;;;;;11.70;7.20;;;6.00;99.90;;;;;;5047855;28;20041;-65
2022/11/27 09:27:24;;;;;;;15.88;7.63;;;6.00;99.90;;;;;;5043427;28;20037;-64
2022/11/27 09:29:50;;;;;;;16.42;8.48;;;6.00;99.90;;;;;;5045109;28;20048;-64
2022/11/27 09:32:16;;;;;;;13.75;6.93;;;6.00;99.90;;;;;;5047822;28;20053;-64
2022/11/27 09:34:41;;;;;;;10.50;6.72;;;6.00;99.90;;;;;;5043614;28;20041;-64
2022/11/27 09:37:08;;;;;;;15.85;7.90;;;6.00;99.90;;;;;;5039634;28;20179;-64
2022/11/27 09:39:34;;;;;;;13.43;7.97;;;6.00;99.90;;;;;;5047231;28;20036;-64
2022/11/27 09:42:05;;;;;;;15.93;8.93;;;6.00;99.90;;;;;;5042382;28;20123;-64
2022/11/27 09:44:48;;;;;;;17.40;7.68;;;6.00;99.90;;;;;;5042744;28;20747;-64
2022/11/27 09:47:28;;;;;;;14.52;8.55;;;6.00;99.90;;;;;;5041760;28;20045;-64
2022/11/27 09:50:01;;;;;;;16.73;7.90;;;6.00;99.90;;;;;;5043851;28;20129;-64
2022/11/27 09:52:37;;;;;;;17.80;8.60;;;6.00;99.90;;;;;;5046638;28;20117;-63
2022/11/27 09:55:37;;;;;;;13.70;8.32;;;6.00;99.90;;;;;;5044302;28;20515;-64
2022/11/27 09:58:13;;;;;;;14.85;8.00;;;6.00;99.90;;;;;;5042741;28;20041;-64
2022/11/27 10:00:39;;;;;;;14.80;8.88;;;6.00;99.90;;;;;;5044609;28;20044;-64
2022/11/27 10:03:13;;;;;;;16.75;9.02;;;6.00;99.90;;;;;;5041969;28;20033;-64
2022/11/27 10:05:48;;;;;;;17.42;9.18;;;6.00;99.90;;;;;;5044609;28;20041;-64
2022/11/27 10:08:32;;;;;;;18.50;9.40;;;6.00;99.90;;;;;;5038755;28;20076;-63
2022/11/27 10:11:22;;;;;;;14.60;8.63;;;5.90;99.90;;;;;;5042491;28;20037;-63
2022/11/27 10:14:02;;;;;;;12.95;8.48;;;6.00;99.90;;;;;;5039902;28;20094;-63
2022/11/27 10:16:51;;;;;;;17.33;8.80;;;6.00;99.90;;;;;;5043960;28;20053;-63
2022/11/27 10:19:47;;;;;;;16.38;9.00;;;6.00;99.90;;;;;;5041230;28;20045;-63
2022/11/27 10:22:37;;;;;;;17.80;8.88;;;6.00;99.90;;;;;;5039421;28;20037;-64
2022/11/27 10:25:18;;;;;;;18.48;8.80;;;6.00;99.90;;;;;;5044240;28;20044;-64
2022/11/27 10:28:07;;;;;;;13.68;8.68;;;6.00;99.90;;;;;;5041694;28;20045;-63
2022/11/27 10:30:38;;;;;;;19.60;8.30;;;6.00;99.90;;;;;;5043600;28;20060;-64
2022/11/27 10:33:14;;;;;;;16.73;8.07;;;5.90;99.90;;;;;;5040543;28;20053;-64
2022/11/27 10:35:42;;;;;;;17.17;8.77;;;6.00;99.90;;;;;;5036637;28;20040;-64
2022/11/27 10:38:27;;;;;;;13.73;8.40;;;6.00;99.90;;;;;;5036647;28;20033;-63
2022/11/27 10:41:02;;;;;;;17.65;9.13;;;6.00;99.90;;;;;;5037242;28;20114;-64
2022/11/27 10:43:27;;;;;;;19.05;9.52;;;6.00;99.90;;;;;;5037187;28;20048;-64
2022/11/27 10:46:12;;;;;;;18.23;8.90;;;6.00;99.90;;;;;;5039859;28;20139;-64
2022/11/27 10:48:38;;;;;;;16.85;8.48;;;6.00;99.90;;;;;;5038093;28;20061;-63
2022/11/27 10:51:19;;;;;;;15.95;9.38;;;6.00;99.90;;;;;;5041368;28;20354;-64
2022/11/27 10:53:49;;;;;;;15.00;8.73;;;6.10;99.90;;;;;;5039948;28;20400;-63
2022/11/27 10:56:17;;;;;;;16.42;8.57;;;6.10;99.90;;;;;;5040876;28;20037;-63
2022/11/27 10:58:54;;;;;;;14.95;8.85;;;6.10;99.90;;;;;;5041480;28;20045;-63
2022/11/27 11:01:20;;;;;;;17.48;8.48;;;6.10;99.90;;;;;;5039500;28;20128;-64
2022/11/27 11:03:46;;;;;;;14.48;8.02;;;6.10;99.90;;;;;;5040967;28;20033;-63
2022/11/27 11:06:21;;;;;;;15.55;8.05;;;6.10;99.90;;;;;;5047381;28;20041;-63
2022/11/27 11:08:48;;;;;;;14.85;8.00;;;6.20;99.90;;;;;;5045149;28;20121;-64
2022/11/27 11:11:25;;;;;;;14.57;8.73;;;6.10;99.90;;;;;;5046880;28;20120;-63
2022/11/27 11:13:50;;;;;;;15.43;7.70;;;6.20;99.90;;;;;;5041255;28;20033;-64
2022/11/27 11:16:21;;;;;;;17.52;9.10;;;6.20;99.90;;;;;;5039727;28;20397;-63
2022/11/27 11:18:49;;;;;;;17.17;8.82;;;6.20;99.90;;;;;;5042025;28;20086;-64
2022/11/27 11:21:41;;;;;;;16.05;8.23;;;6.20;99.90;;;;;;5034772;28;20559;-64
2022/11/27 11:24:25;;;;;;;13.25;8.32;;;6.20;99.90;;;;;;5044279;28;20072;-64
2022/11/27 11:27:03;;;;;;;16.83;8.38;;;6.30;99.90;;;;;;5036685;28;20045;-64
2022/11/27 11:29:54;;;;;;;15.32;8.52;;;6.30;99.90;;;;;;5043893;28;20103;-63
2022/11/27 11:32:23;;;;;;;17.90;8.35;;;6.20;99.90;;;;;;5033888;28;20465;-63
2022/11/27 11:34:54;;;;;;;15.40;7.82;;;6.30;99.90;;;;;;5037571;28;20064;-64
2022/11/27 11:37:28;;;;;;;12.80;7.30;;;6.30;99.90;;;;;;5037294;28;20030;-65
2022/11/27 11:39:58;;;;;;;14.55;8.38;;;6.30;99.90;;;;;;5043482;28;20416;-64
2022/11/27 11:42:29;;;;;;;13.32;7.55;;;6.40;99.90;;;;;;5036919;28;20122;-64
2022/11/27 11:45:04;;;;;;;16.95;7.97;;;6.40;99.90;;;;;;5038847;28;20464;-63
2022/11/27 11:47:30;;;;;;;;;;;6.40;99.90;;;;;;5042215;28;20179;-64
2022/11/27 11:49:56;;;;;;;13.88;7.55;;;6.40;99.90;;;;;;5041365;28;19960;-64
2022/11/27 11:52:41;;;;;;;18.02;7.63;;;6.40;99.90;;;;;;5040508;28;20044;-64
2022/11/27 11:55:17;;;;;;;13.50;7.65;;;6.40;99.90;;;;;;5044748;28;20384;-64
2022/11/27 11:58:09;;;;;;;13.25;7.93;;;6.50;99.90;;;;;;5035275;28;20059;-66
2022/11/27 12:00:44;;;;;;;13.13;8.50;;;6.50;99.90;;;;;;5040605;28;20136;-64
2022/11/27 12:03:15;;;;;;;15.05;7.65;;;6.50;99.90;;;;;;5040642;28;20036;-63
2022/11/27 12:06:13;;;;;;;13.57;7.70;;;6.50;99.90;;;;;;5039462;28;20546;-64
2022/11/27 12:09:14;;;;;;;13.77;7.60;;;6.50;99.90;;;;;;5037444;28;20042;-64
2022/11/27 12:11:48;;;;;;;19.23;7.45;;;6.50;99.90;;;;;;5037793;28;20044;-64
2022/11/27 12:14:41;;;;;;;14.43;7.53;;;6.50;99.90;;;;;;5044265;28;20617;-65
2022/11/27 12:17:24;;;;;;;13.80;6.97;;;6.50;99.90;;;;;;5038970;28;20092;-64
2022/11/27 12:19:58;;;;;;;14.50;7.30;;;6.50;99.90;;;;;;5033101;28;20071;-64
2022/11/27 12:22:36;;;;;;;12.20;7.03;;;6.50;99.90;;;;;;5042738;28;20114;-64
2022/11/27 12:25:21;;;;;;;12.70;7.22;;;6.50;99.90;;;;;;5046201;28;20045;-64
2022/11/27 12:27:58;;;;;;;13.23;7.00;;;6.60;99.90;;;;;;5042394;28;20037;-64
2022/11/27 12:30:56;;;;;;;12.95;6.72;;;6.50;99.90;;;;;;5042974;28;20090;-64
2022/11/27 12:33:33;;;;;;;16.15;7.60;;;6.50;99.90;;;;;;5032145;28;20393;-64
2022/11/27 12:36:15;;;;;;;13.10;7.63;;;6.50;99.90;;;;;;5040291;28;20102;-64
2022/11/27 12:39:18;;;;;;;14.55;7.80;;;6.60;99.90;;;;;;5041418;28;20095;-64
2022/11/27 12:41:49;;;;;;;14.77;7.80;;;6.60;99.90;;;;;;4968756;28;20038;-64
2022/11/27 12:44:49;;;;;;;12.13;8.00;;;6.60;99.90;;;;;;5029276;28;20049;-64
2022/11/27 12:47:17;;;;;;;14.63;7.53;;;6.60;99.90;;;;;;5040489;28;20132;-63
2022/11/27 12:49:50;;;;;;;9.77;6.68;;;6.60;99.90;;;;;;5045879;28;20048;-65
2022/11/27 12:52:33;;;;;;;15.60;6.50;;;6.50;99.90;;;;;;5041971;28;20033;-64
2022/11/27 12:55:19;;;;;;;14.23;7.57;;;6.60;99.90;;;;;;5042993;28;20036;-64
2022/11/27 12:57:50;;;;;;;11.95;8.05;;;6.60;99.90;;;;;;5042571;28;20056;-64
2022/11/27 13:00:20;;;;;;;13.00;7.60;;;6.60;99.90;;;;;;5044388;28;20126;-64
2022/11/27 13:03:01;;;;;;;14.52;7.68;;;6.60;99.90;;;;;;5044440;28;20040;-64
2022/11/27 13:05:32;;;;;;;11.45;7.57;;;6.60;99.90;;;;;;5040443;28;20040;-64
2022/11/27 13:08:05;;;;;;;11.00;6.95;;;6.70;99.90;;;;;;5038295;28;20434;-64